createdAt,value
2022-08-10T00:01:51.372Z,20.91
2022-08-10T00:04:23.157Z,20.91
2022-08-10T00:06:53.047Z,20.87
2022-08-10T00:09:23.347Z,20.75
2022-08-10T00:11:52.183Z,20.68
2022-08-10T00:14:21.955Z,20.59
2022-08-10T00:16:50.161Z,20.51
2022-08-10T00:19:19.252Z,20.55
2022-08-10T00:21:49.550Z,20.60
2022-08-10T00:24:18.733Z,20.57
2022-08-10T00:27:52.951Z,20.48
2022-08-10T00:29:37.333Z,20.45
2022-08-10T00:32:06.160Z,20.56
2022-08-10T00:34:36.108Z,20.60
2022-08-10T00:37:04.696Z,20.55
2022-08-10T00:39:35.941Z,20.49
2022-08-10T00:42:08.672Z,20.46
2022-08-10T00:44:38.381Z,20.36
2022-08-10T00:47:07.483Z,20.28
2022-08-10T00:49:50.060Z,20.30
2022-08-10T00:52:20.033Z,20.29
2022-08-10T00:54:49.231Z,20.30
2022-08-10T00:57:20.661Z,20.32
2022-08-10T00:59:59.371Z,20.28
2022-08-10T01:02:33.304Z,20.30
2022-08-10T01:05:03.228Z,20.24
2022-08-10T01:07:52.173Z,20.26
2022-08-10T01:10:31.247Z,20.24
2022-08-10T01:13:07.687Z,20.19
2022-08-10T01:15:44.115Z,20.23
2022-08-10T01:18:19.731Z,20.23
2022-08-10T01:21:10.147Z,20.25
2022-08-10T01:24:06.750Z,20.26
2022-08-10T01:27:08.501Z,20.24
2022-08-10T01:29:50.153Z,20.15
2022-08-10T01:32:25.657Z,20.14
2022-08-10T01:34:58.029Z,20.04
2022-08-10T01:37:33.500Z,20.04
2022-08-10T01:40:05.825Z,20.04
2022-08-10T01:42:37.311Z,20.05
2022-08-10T01:45:11.043Z,20.07
2022-08-10T01:47:59.824Z,20.08
2022-08-10T01:50:31.922Z,20.06
2022-08-10T01:53:06.140Z,20.05
2022-08-10T01:55:36.422Z,19.90
2022-08-10T01:58:06.467Z,19.78
2022-08-10T02:00:40.038Z,19.80
2022-08-10T02:03:10.019Z,19.78
2022-08-10T02:05:41.262Z,19.78
2022-08-10T02:08:12.578Z,19.63
2022-08-10T02:10:42.130Z,19.59
2022-08-10T02:13:11.081Z,19.61
2022-08-10T02:16:01.465Z,19.62
2022-08-10T02:18:32.241Z,19.63
2022-08-10T02:21:03.508Z,19.60
2022-08-10T02:23:34.027Z,19.59
2022-08-10T02:26:04.585Z,19.56
2022-08-10T02:28:35.001Z,19.50
2022-08-10T02:31:08.809Z,19.46
2022-08-10T02:33:56.801Z,19.36
2022-08-10T02:36:28.955Z,19.37
2022-08-10T02:39:00.935Z,19.34
2022-08-10T02:45:12.567Z,19.31
2022-08-10T02:45:19.190Z,19.34
2022-08-10T02:47:26.573Z,19.30
2022-08-10T02:50:03.021Z,19.29
2022-08-10T02:52:42.122Z,19.33
2022-08-10T02:55:18.782Z,19.27
2022-08-10T02:58:12.534Z,19.25
2022-08-10T03:00:44.720Z,19.20
2022-08-10T03:03:21.135Z,19.19
2022-08-10T03:05:52.346Z,19.14
2022-08-10T03:08:25.692Z,19.21
2022-08-10T03:10:55.997Z,19.15
2022-08-10T03:13:25.504Z,19.16
2022-08-10T03:15:55.473Z,19.18
2022-08-10T03:18:26.029Z,19.14
2022-08-10T03:20:56.044Z,19.12
2022-08-10T03:23:26.376Z,19.15
2022-08-10T03:25:56.780Z,19.10
2022-08-10T03:28:26.696Z,19.19
2022-08-10T03:30:58.597Z,19.15
2022-08-10T03:33:32.211Z,19.07
2022-08-10T03:36:39.932Z,18.97
2022-08-10T03:38:51.852Z,18.95
2022-08-10T03:41:25.403Z,18.95
2022-08-10T03:43:59.475Z,18.86
2022-08-10T03:46:29.236Z,18.87
2022-08-10T03:49:03.241Z,18.86
2022-08-10T03:51:33.639Z,18.84
2022-08-10T03:54:07.198Z,18.83
2022-08-10T03:56:37.910Z,18.81
2022-08-10T03:59:07.961Z,18.84
2022-08-10T04:02:45.312Z,18.92
2022-08-10T04:04:28.581Z,18.87
2022-08-10T04:06:58.777Z,18.82
2022-08-10T04:09:53.945Z,18.88
2022-08-10T04:12:19.097Z,18.89
2022-08-10T04:14:52.962Z,18.91
2022-08-10T04:18:03.876Z,19.03
2022-08-10T04:20:19.720Z,19.07
2022-08-10T04:22:52.251Z,19.16
2022-08-10T04:25:21.982Z,19.31
2022-08-10T04:27:51.040Z,19.33
2022-08-10T04:30:19.044Z,19.34
2022-08-10T04:32:50.305Z,19.38
2022-08-10T04:35:21.944Z,19.49
2022-08-10T04:37:52.105Z,19.60
2022-08-10T04:40:29.332Z,19.77
2022-08-10T04:43:11.615Z,20.03
2022-08-10T04:45:49.613Z,20.06
2022-08-10T04:48:40.639Z,20.13
2022-08-10T04:51:17.589Z,19.95
2022-08-10T04:54:05.808Z,19.94
2022-08-10T04:56:40.277Z,19.92
2022-08-10T04:59:12.232Z,19.69
2022-08-10T05:02:22.434Z,19.85
2022-08-10T05:04:34.789Z,20.00
2022-08-10T05:07:10.706Z,20.02
2022-08-10T05:10:01.517Z,20.09
2022-08-10T05:12:27.369Z,20.04
2022-08-10T05:14:55.714Z,20.17
2022-08-10T05:17:24.708Z,20.27
2022-08-10T05:20:04.559Z,20.55
2022-08-10T05:22:39.739Z,20.71
2022-08-10T05:25:11.484Z,20.81
2022-08-10T05:27:40.815Z,20.82
2022-08-10T05:30:11.017Z,20.70
2022-08-10T05:32:57.381Z,20.86
2022-08-10T05:35:28.122Z,20.92
2022-08-10T05:38:12.373Z,21.09
2022-08-10T05:40:46.674Z,21.35
2022-08-10T05:43:18.614Z,21.46
2022-08-10T05:46:18.593Z,21.68
2022-08-10T05:48:55.138Z,21.29
2022-08-10T05:51:26.080Z,21.64
2022-08-10T05:54:04.161Z,21.43
2022-08-10T05:56:55.642Z,21.43
2022-08-10T06:00:33.004Z,21.72
2022-08-10T06:02:33.058Z,22.04
2022-08-10T06:05:08.106Z,22.44
2022-08-10T06:07:38.492Z,22.21
2022-08-10T06:10:12.571Z,22.24
2022-08-10T06:12:53.929Z,23.02
2022-08-10T06:15:50.274Z,23.14
2022-08-10T06:18:15.924Z,23.44
2022-08-10T06:20:44.552Z,23.97
2022-08-10T06:23:13.590Z,23.63
2022-08-10T06:26:11.421Z,24.01
2022-08-10T06:28:35.226Z,24.17
2022-08-10T06:31:05.408Z,24.18
2022-08-10T06:33:36.311Z,24.48
2022-08-10T06:36:07.150Z,24.62
2022-08-10T06:38:37.521Z,24.74
2022-08-10T06:41:18.088Z,24.79
2022-08-10T06:43:55.085Z,24.63
2022-08-10T06:46:24.669Z,25.13
2022-08-10T06:48:55.462Z,25.23
2022-08-10T06:51:26.998Z,25.19
2022-08-10T06:53:59.622Z,25.26
2022-08-10T06:56:37.825Z,25.38
2022-08-10T06:59:21.396Z,25.38
2022-08-10T07:01:54.772Z,25.75
2022-08-10T07:04:32.478Z,25.51
2022-08-10T07:07:04.487Z,25.57
2022-08-10T07:09:36.577Z,25.69
2022-08-10T07:12:09.306Z,25.89
2022-08-10T07:14:43.607Z,26.16
2022-08-10T07:17:16.507Z,26.50
2022-08-10T07:19:49.524Z,26.38
2022-08-10T07:23:01.821Z,26.44
2022-08-10T07:25:10.331Z,26.64
2022-08-10T07:27:59.955Z,27.19
2022-08-10T07:30:31.650Z,27.95
2022-08-10T07:33:01.537Z,28.62
2022-08-10T07:35:41.738Z,28.76
2022-08-10T07:38:21.888Z,28.46
2022-08-10T07:40:51.876Z,28.45
2022-08-10T07:43:24.911Z,28.81
2022-08-10T07:45:53.171Z,29.00
2022-08-10T07:48:27.078Z,30.04
2022-08-10T07:50:59.549Z,30.11
2022-08-10T07:53:33.213Z,30.60
2022-08-10T07:56:16.977Z,30.47
2022-08-10T07:58:59.171Z,29.90
2022-08-10T08:01:33.056Z,30.44
2022-08-10T08:04:11.568Z,30.56
2022-08-10T08:06:44.260Z,30.55
2022-08-10T08:09:12.931Z,30.87
2022-08-10T08:11:44.616Z,31.11
2022-08-10T08:14:16.920Z,31.02
2022-08-10T08:16:48.383Z,31.36
2022-08-10T08:19:37.745Z,31.61
2022-08-10T08:24:10.408Z,30.81
2022-08-10T08:24:57.957Z,31.81
2022-08-10T08:27:28.477Z,31.89
2022-08-10T08:29:58.804Z,31.15
2022-08-10T08:32:33.287Z,32.78
2022-08-10T08:35:10.768Z,34.22
2022-08-10T08:38:28.923Z,33.07
2022-08-10T08:40:30.308Z,32.44
2022-08-10T08:43:21.415Z,32.59
2022-08-10T08:46:15.949Z,31.24
2022-08-10T08:49:01.726Z,31.36
2022-08-10T08:52:09.324Z,31.82
2022-08-10T08:54:40.159Z,32.73
2022-08-10T08:57:22.937Z,33.01
2022-08-10T09:00:13.640Z,32.74
2022-08-10T09:03:08.805Z,32.11
2022-08-10T09:05:58.670Z,31.89
2022-08-10T09:08:45.963Z,31.88
2022-08-10T09:11:29.848Z,31.31
2022-08-10T09:14:02.937Z,31.43
2022-08-10T09:16:44.436Z,31.40
2022-08-10T09:19:36.146Z,31.37
2022-08-10T09:22:18.440Z,31.61
2022-08-10T09:24:55.614Z,31.56
2022-08-10T09:27:27.737Z,31.27
2022-08-10T09:29:59.042Z,31.54
2022-08-10T09:36:17.095Z,31.30
2022-08-10T09:36:28.668Z,31.40
2022-08-10T09:38:38.352Z,31.54
2022-08-10T09:41:21.085Z,31.93
2022-08-10T09:43:56.313Z,31.63
2022-08-10T09:46:35.606Z,32.23
2022-08-10T09:49:16.191Z,32.68
2022-08-10T09:52:14.607Z,32.99
2022-08-10T09:55:06.779Z,33.09
2022-08-10T09:57:57.054Z,33.36
2022-08-10T10:00:33.316Z,33.10
2022-08-10T10:03:17.009Z,33.02
2022-08-10T10:05:54.651Z,33.58
2022-08-10T10:08:31.769Z,34.06
2022-08-10T10:11:18.274Z,33.29
2022-08-10T10:14:03.881Z,31.88
2022-08-10T10:16:54.783Z,31.93
2022-08-10T10:19:37.272Z,33.62
2022-08-10T10:22:26.174Z,34.01
2022-08-10T10:25:19.998Z,35.23
2022-08-10T10:27:59.506Z,37.05
2022-08-10T10:30:36.581Z,37.80
2022-08-10T10:33:14.808Z,35.89
2022-08-10T10:35:50.281Z,34.24
2022-08-10T10:38:20.024Z,34.04
2022-08-10T10:41:01.775Z,36.80
2022-08-10T10:43:45.975Z,38.23
2022-08-10T10:46:26.112Z,38.04
2022-08-10T10:49:05.446Z,39.69
2022-08-10T10:51:39.129Z,42.71
2022-08-10T10:54:13.160Z,40.38
2022-08-10T10:56:53.084Z,42.56
2022-08-10T10:59:53.621Z,38.91
2022-08-10T11:02:32.627Z,38.84
2022-08-10T11:05:15.137Z,38.38
2022-08-10T11:07:53.140Z,37.09
2022-08-10T11:10:32.064Z,37.12
2022-08-10T11:14:26.525Z,36.54
2022-08-10T11:16:19.286Z,35.61
2022-08-10T11:18:56.233Z,34.24
2022-08-10T11:21:47.003Z,33.74
2022-08-10T11:24:47.263Z,33.88
2022-08-10T11:27:21.894Z,33.30
2022-08-10T11:30:00.180Z,34.04
2022-08-10T11:32:42.959Z,34.73
2022-08-10T11:35:21.636Z,36.02
2022-08-10T11:38:34.719Z,34.77
2022-08-10T11:40:54.212Z,36.42
2022-08-10T11:43:27.500Z,38.46
2022-08-10T11:46:08.111Z,41.22
2022-08-10T11:48:52.872Z,42.84
2022-08-10T11:51:29.779Z,42.21
2022-08-10T11:54:04.819Z,39.65
2022-08-10T11:56:40.009Z,38.92
2022-08-10T11:59:26.676Z,40.90
2022-08-10T12:01:57.905Z,41.62
2022-08-10T12:04:28.261Z,40.80
2022-08-10T12:06:57.733Z,42.59
2022-08-10T12:10:08.686Z,44.69
2022-08-10T12:12:17.759Z,45.17
2022-08-10T12:14:52.428Z,47.54
2022-08-10T12:17:28.080Z,47.91
2022-08-10T12:20:03.970Z,46.50
2022-08-10T12:22:37.769Z,44.47
2022-08-10T12:25:10.324Z,42.81
2022-08-10T12:27:43.235Z,42.25
2022-08-10T12:30:15.850Z,42.02
2022-08-10T12:32:56.067Z,41.83
2022-08-10T12:35:28.817Z,42.27
2022-08-10T12:38:09.746Z,43.22
2022-08-10T12:40:44.625Z,43.49
2022-08-10T12:44:06.787Z,44.25
2022-08-10T12:46:19.537Z,42.15
2022-08-10T12:48:58.113Z,41.13
2022-08-10T12:51:30.542Z,41.84
2022-08-10T12:54:08.840Z,41.70
2022-08-10T12:56:40.147Z,42.79
2022-08-10T12:59:12.434Z,45.59
2022-08-10T13:02:07.927Z,47.53
2022-08-10T13:04:34.729Z,44.58
2022-08-10T13:07:04.343Z,43.90
2022-08-10T13:09:34.637Z,42.66
2022-08-10T13:12:38.460Z,43.44
2022-08-10T13:15:43.167Z,42.84
2022-08-10T13:18:18.767Z,41.47
2022-08-10T13:20:53.514Z,43.15
2022-08-10T13:23:24.421Z,45.18
2022-08-10T13:25:55.402Z,43.99
2022-08-10T13:28:37.880Z,43.82
2022-08-10T13:31:16.853Z,42.26
2022-08-10T13:34:39.032Z,43.56
2022-08-10T13:36:42.661Z,44.03
2022-08-10T13:39:12.701Z,41.81
2022-08-10T13:41:43.731Z,42.27
2022-08-10T13:44:16.777Z,45.37
2022-08-10T13:46:50.795Z,45.13
2022-08-10T13:49:21.800Z,40.95
2022-08-10T13:51:55.093Z,39.34
2022-08-10T13:54:28.904Z,40.01
2022-08-10T13:56:58.715Z,42.53
2022-08-10T14:00:34.103Z,43.19
2022-08-10T14:02:26.357Z,42.58
2022-08-10T14:04:57.031Z,39.83
2022-08-10T14:07:28.818Z,40.05
2022-08-10T14:10:04.893Z,41.63
2022-08-10T14:12:33.822Z,43.39
2022-08-10T14:15:03.534Z,43.33
2022-08-10T14:17:34.482Z,41.44
2022-08-10T14:20:10.548Z,39.03
2022-08-10T14:22:43.005Z,36.57
2022-08-10T14:25:13.738Z,35.08
2022-08-10T14:28:03.485Z,35.41
2022-08-10T14:30:34.279Z,38.25
2022-08-10T14:33:04.948Z,38.12
2022-08-10T14:36:22.520Z,36.65
2022-08-10T14:38:29.888Z,38.24
2022-08-10T14:41:01.588Z,40.24
2022-08-10T14:43:35.915Z,40.77
2022-08-10T14:46:06.510Z,40.96
2022-08-10T14:48:40.262Z,42.17
2022-08-10T14:51:10.868Z,42.28
2022-08-10T14:53:44.284Z,41.56
2022-08-10T14:56:16.012Z,42.38
2022-08-10T14:59:05.285Z,42.22
2022-08-10T15:02:00.372Z,40.59
2022-08-10T15:04:28.888Z,40.82
2022-08-10T15:07:01.172Z,43.92
2022-08-10T15:10:00.565Z,44.90
2022-08-10T15:12:33.047Z,42.78
2022-08-10T15:15:03.689Z,40.97
2022-08-10T15:17:37.567Z,40.99
2022-08-10T15:20:13.481Z,41.12
2022-08-10T15:22:50.443Z,39.60
2022-08-10T15:25:25.012Z,40.20
2022-08-10T15:28:05.053Z,40.02
2022-08-10T15:30:40.919Z,39.97
2022-08-10T15:33:57.651Z,40.19
2022-08-10T15:36:38.748Z,39.56
2022-08-10T15:39:14.130Z,38.84
2022-08-10T15:41:58.876Z,39.16
2022-08-10T15:44:39.416Z,38.38
2022-08-10T15:47:12.178Z,39.92
2022-08-10T15:49:49.483Z,42.17
2022-08-10T15:52:39.687Z,42.82
2022-08-10T15:55:43.288Z,42.25
2022-08-10T15:58:11.829Z,41.98
2022-08-10T16:00:48.287Z,41.72
2022-08-10T16:03:24.485Z,42.81
2022-08-10T16:06:01.721Z,42.43
2022-08-10T16:08:55.745Z,40.79
2022-08-10T16:11:37.595Z,39.67
2022-08-10T16:14:20.474Z,39.44
2022-08-10T16:16:57.272Z,40.80
2022-08-10T16:19:28.652Z,41.03
2022-08-10T16:22:00.199Z,40.50
2022-08-10T16:24:32.855Z,41.72
2022-08-10T16:27:04.923Z,41.61
2022-08-10T16:29:56.057Z,40.12
2022-08-10T16:32:26.613Z,38.23
2022-08-10T16:34:56.515Z,36.65
2022-08-10T16:37:57.558Z,36.96
2022-08-10T16:40:22.314Z,37.81
2022-08-10T16:42:52.534Z,37.96
2022-08-10T16:45:30.249Z,38.24
2022-08-10T16:47:59.936Z,38.65
2022-08-10T16:50:31.289Z,39.11
2022-08-10T16:53:03.499Z,38.48
2022-08-10T16:55:49.505Z,38.85
2022-08-10T16:58:25.669Z,38.66
2022-08-10T17:01:01.670Z,37.91
2022-08-10T17:04:05.623Z,37.33
2022-08-10T17:06:29.772Z,37.33
2022-08-10T17:09:00.697Z,36.03
2022-08-10T17:11:31.567Z,35.49
2022-08-10T17:14:02.319Z,36.09
2022-08-10T17:16:37.146Z,36.24
2022-08-10T17:19:11.838Z,36.56
2022-08-10T17:21:51.484Z,36.18
2022-08-10T17:24:25.188Z,35.89
2022-08-10T17:26:53.359Z,35.60
2022-08-10T17:29:58.859Z,35.05
2022-08-10T17:32:22.096Z,35.26
2022-08-10T17:34:57.293Z,35.11
2022-08-10T17:37:28.736Z,34.82
2022-08-10T17:40:00.660Z,34.34
2022-08-10T17:42:29.377Z,34.14
2022-08-10T17:44:59.607Z,34.16
2022-08-10T17:47:29.958Z,34.07
2022-08-10T17:49:59.971Z,33.92
2022-08-10T17:52:32.330Z,33.84
2022-08-10T17:55:10.041Z,34.05
2022-08-10T17:57:40.636Z,34.00
2022-08-10T18:00:14.893Z,33.68
2022-08-10T18:02:48.119Z,33.45
2022-08-10T18:05:16.520Z,33.30
2022-08-10T18:07:48.186Z,33.17
2022-08-10T18:10:20.514Z,32.89
2022-08-10T18:12:50.761Z,32.50
2022-08-10T18:15:22.245Z,32.23
2022-08-10T18:17:59.126Z,31.93
2022-08-10T18:20:34.707Z,31.84
2022-08-10T18:23:04.806Z,31.61
2022-08-10T18:25:36.188Z,31.27
2022-08-10T18:28:09.128Z,31.05
2022-08-10T18:30:46.329Z,30.77
2022-08-10T18:33:17.385Z,30.52
2022-08-10T18:35:47.250Z,30.19
2022-08-10T18:38:17.239Z,30.03
2022-08-10T18:40:53.800Z,29.61
2022-08-10T18:44:06.075Z,29.31
2022-08-10T18:46:19.450Z,28.99
2022-08-10T18:48:53.228Z,28.71
2022-08-10T18:51:26.186Z,28.51
2022-08-10T18:54:00.601Z,28.33
2022-08-10T18:56:48.999Z,28.03
2022-08-10T18:59:33.553Z,27.79
2022-08-10T19:02:14.749Z,27.61
2022-08-10T19:05:04.374Z,27.58
2022-08-10T19:07:47.163Z,27.44
2022-08-10T19:10:28.686Z,27.43
2022-08-10T19:13:02.271Z,27.27
2022-08-10T19:15:43.788Z,27.00
2022-08-10T19:18:23.865Z,26.82
2022-08-10T19:20:59.190Z,26.69
2022-08-10T19:23:40.667Z,26.57
2022-08-10T19:26:43.901Z,26.42
2022-08-10T19:30:09.588Z,26.30
2022-08-10T19:32:21.592Z,26.19
2022-08-10T19:34:59.927Z,26.07
2022-08-10T19:37:38.508Z,25.95
2022-08-10T19:40:44.807Z,25.85
2022-08-10T19:43:30.888Z,25.75
2022-08-10T19:46:15.160Z,25.63
2022-08-10T19:48:53.527Z,25.44
2022-08-10T19:51:27.307Z,25.40
2022-08-10T19:54:03.414Z,25.17
2022-08-10T19:56:44.057Z,25.14
2022-08-10T20:00:16.088Z,24.99
2022-08-10T20:02:22.586Z,24.93
2022-08-10T20:05:02.622Z,24.82
2022-08-10T20:07:37.256Z,24.70
2022-08-10T20:10:16.318Z,24.57
2022-08-10T20:12:51.480Z,24.43
2022-08-10T20:15:29.130Z,24.26
2022-08-10T20:18:03.022Z,24.08
2022-08-10T20:20:37.435Z,23.97
2022-08-10T20:23:18.929Z,23.90
2022-08-10T20:25:56.448Z,23.80
2022-08-10T20:28:35.298Z,23.77
2022-08-10T20:31:11.526Z,23.64
2022-08-10T20:33:57.402Z,23.15
2022-08-10T20:36:32.036Z,23.16
2022-08-10T20:39:13.185Z,23.27
2022-08-10T20:41:55.602Z,23.34
2022-08-10T20:44:34.346Z,23.33
2022-08-10T20:47:07.098Z,23.24
2022-08-10T20:49:42.562Z,23.29
2022-08-10T20:52:12.284Z,23.21
2022-08-10T20:54:45.600Z,23.28
2022-08-10T20:57:56.173Z,23.22
2022-08-10T21:00:12.885Z,23.18
2022-08-10T21:02:54.934Z,23.23
2022-08-10T21:05:31.521Z,23.15
2022-08-10T21:08:13.663Z,23.12
2022-08-10T21:11:01.603Z,23.02
2022-08-10T21:14:10.751Z,22.97
2022-08-10T21:16:56.526Z,23.20
2022-08-10T21:19:41.132Z,23.21
2022-08-10T21:22:26.250Z,23.28
2022-08-10T21:25:02.335Z,23.20
2022-08-10T21:27:55.235Z,23.18
2022-08-10T21:30:37.837Z,22.93
2022-08-10T21:33:12.079Z,22.94
2022-08-10T21:35:45.191Z,22.87
2022-08-10T21:38:24.195Z,22.82
2022-08-10T21:41:58.011Z,22.89
2022-08-10T21:45:04.169Z,22.87
2022-08-10T21:48:17.695Z,22.84
2022-08-10T21:51:16.592Z,22.74
2022-08-10T21:54:18.146Z,22.60
2022-08-10T21:57:09.640Z,22.55
2022-08-10T22:00:00.929Z,22.39
2022-08-10T22:02:50.911Z,22.32
2022-08-10T22:05:44.633Z,22.22
2022-08-10T22:08:37.607Z,22.22
2022-08-10T22:11:28.451Z,22.13
2022-08-10T22:14:16.250Z,21.96
2022-08-10T22:17:59.179Z,21.69
2022-08-10T22:20:24.985Z,21.66
2022-08-10T22:23:34.905Z,21.76
2022-08-10T22:26:32.521Z,21.92
2022-08-10T22:29:23.586Z,21.92
2022-08-10T22:32:19.838Z,21.77
2022-08-10T22:35:21.533Z,21.75
2022-08-10T22:38:16.468Z,21.75
2022-08-10T22:41:05.531Z,21.67
2022-08-10T22:43:53.248Z,21.67
2022-08-10T22:46:43.692Z,21.51
2022-08-10T22:49:11.125Z,21.53
2022-08-10T22:51:52.175Z,21.53
2022-08-10T22:54:42.231Z,21.54
2022-08-10T22:57:34.968Z,21.45
2022-08-10T23:00:15.422Z,21.41
2022-08-10T23:02:51.463Z,21.38
2022-08-10T23:05:29.708Z,21.38
2022-08-10T23:08:02.583Z,21.44
2022-08-10T23:10:38.412Z,21.44
2022-08-10T23:13:13.778Z,21.42
2022-08-10T23:16:22.272Z,21.17
2022-08-10T23:19:09.689Z,20.95
2022-08-10T23:22:05.094Z,20.86
2022-08-10T23:24:37.832Z,20.98
2022-08-10T23:27:12.867Z,20.96
2022-08-10T23:30:09.352Z,20.88
2022-08-10T23:32:42.240Z,20.86
2022-08-10T23:36:04.523Z,20.91
2022-08-10T23:38:06.043Z,20.95
2022-08-10T23:40:36.382Z,20.95
2022-08-10T23:43:06.565Z,20.97
2022-08-10T23:45:53.970Z,20.84
2022-08-10T23:48:26.389Z,20.67
2022-08-10T23:50:59.704Z,20.62
2022-08-10T23:53:31.549Z,20.60
2022-08-10T23:56:03.333Z,20.47
2022-08-10T23:58:38.840Z,20.43
